Time;durP1;ratioP1;P1;durP2;ratioP2;P2;SDS_P1;SDS_P2;PMS_P1;PMS_P2;Temp;Humidity;BMP_temperature;BMP_pressure;BME280_temperature;BME280_humidity;BME280_pressure;Samples;Min_cycle;Max_cycle;Signal;HPM_P1;HPM_P2
2021/06/14 00:00:05;;;;;;;2.45;1.55;;;;;;;8.09;96.03;92936.78;1790536;80;21515;-77
2021/06/14 00:02:33;;;;;;;3.35;1.45;;;;;;;8.10;95.91;92942.97;1789405;80;21609;-78
2021/06/14 00:05:00;;;;;;;1.57;1.20;;;;;;;8.08;95.88;92941.98;1790493;80;21027;-79
2021/06/14 00:07:28;;;;;;;2.35;1.12;;;;;;;8.06;95.91;92940.27;1755873;79;21022;-79
2021/06/14 00:09:55;;;;;;;2.75;1.80;;;;;;;8.05;95.82;92942.78;1755688;80;21107;-78
2021/06/14 00:12:21;;;;;;;3.17;1.75;;;;;;;8.08;95.95;92946.62;1793173;80;21094;-80
2021/06/14 00:14:51;;;;;;;1.45;1.17;;;;;;;8.07;95.83;92941.03;1788999;77;21014;-78
2021/06/14 00:17:18;;;;;;;1.10;0.98;;;;;;;8.07;95.96;92941.80;1775640;79;21054;-77
2021/06/14 00:19:46;;;;;;;0.80;0.40;;;;;;;8.07;96.29;92940.45;1776955;80;20982;-77
2021/06/14 00:22:17;;;;;;;0.70;0.70;;;;;;;8.08;96.52;92938.50;1776731;80;20926;-78
2021/06/14 00:24:44;;;;;;;1.12;0.80;;;;;;;8.06;96.31;92928.66;1776206;80;20956;-78
2021/06/14 00:27:13;;;;;;;1.40;0.62;;;;;;;8.04;96.25;92936.58;1776193;80;21414;-77
2021/06/14 00:29:40;;;;;;;2.27;2.08;;;;;;;8.00;96.72;92939.11;1777035;80;20967;-78
2021/06/14 00:34:34;;;;;;;1.50;0.85;;;;;;;7.97;97.06;92942.03;1858552;77;21163;-78
2021/06/14 00:37:01;;;;;;;1.40;1.15;;;;;;;7.96;96.81;92936.40;1807931;77;21038;-76
2021/06/14 00:39:27;;;;;;;1.65;0.78;;;;;;;7.95;97.25;92942.98;1787949;77;21062;-78
2021/06/14 00:41:54;;;;;;;0.60;0.60;;;;;;;7.98;97.38;92931.97;1798446;77;20990;-77
2021/06/14 00:44:21;;;;;;;3.52;0.40;;;;;;;7.93;97.34;92926.34;1845420;77;21058;-78
2021/06/14 00:46:48;;;;;;;1.30;0.50;;;;;;;7.96;97.59;92929.63;1792225;80;21494;-79
2021/06/14 00:49:15;;;;;;;1.00;0.50;;;;;;;7.98;97.83;92931.38;1791009;80;21117;-78
2021/06/14 00:51:42;;;;;;;0.50;0.30;;;;;;;8.00;98.04;92930.39;1757920;80;21053;-78
2021/06/14 00:54:08;;;;;;;0.40;0.40;;;;;;;8.03;98.38;92928.85;1790306;80;21054;-77
2021/06/14 00:56:35;;;;;;;0.47;0.30;;;;;;;8.08;98.48;92933.09;1788584;79;20988;-78
2021/06/14 00:59:01;;;;;;;0.30;0.17;;;;;;;8.14;98.59;92935.02;1776939;80;21598;-78
2021/06/14 01:01:29;;;;;;;0.65;0.40;;;;;;;8.18;98.55;92937.13;1841000;77;21127;-77
2021/06/14 01:03:57;;;;;;;0.20;0.20;;;;;;;8.19;98.54;92936.55;1811876;76;21190;-78
2021/06/14 01:06:24;;;;;;;0.25;0.25;;;;;;;8.20;98.60;92932.11;1786271;79;21588;-78
2021/06/14 01:08:52;;;;;;;0.60;0.30;;;;;;;8.23;98.43;92933.24;1777243;80;21057;-78
2021/06/14 01:11:21;;;;;;;0.23;0.23;;;;;;;8.24;98.48;92931.52;1750642;80;21094;-78
2021/06/14 01:14:08;;;;;;;0.28;0.20;;;;;;;8.28;98.40;92937.69;1810408;77;21628;-77
2021/06/14 01:16:58;;;;;;;0.30;0.30;;;;;;;8.30;98.47;92931.10;1819755;76;20978;-79
2021/06/14 01:19:59;;;;;;;2.30;0.30;;;;;;;8.31;98.31;92933.99;1797681;77;20940;-77
2021/06/14 01:23:05;;;;;;;0.40;0.40;;;;;;;8.27;98.21;92937.51;1787112;79;21070;-77
2021/06/14 01:26:06;;;;;;;0.93;0.50;;;;;;;8.30;98.46;92934.58;1780964;78;22310;-78
2021/06/14 01:28:32;;;;;;;2.37;0.40;;;;;;;8.30;98.46;92934.58;1805111;79;21635;-78
2021/06/14 01:30:59;;;;;;;0.93;0.93;;;;;;;8.33;98.57;92931.67;1815712;78;21042;-78
2021/06/14 01:33:28;;;;;;;0.30;0.30;;;;;;;8.34;98.17;92928.56;1743437;80;21009;-78
2021/06/14 01:36:01;;;;;;;0.40;0.30;;;;;;;8.31;97.97;92938.83;1753728;80;21094;-78
2021/06/14 01:38:30;;;;;;;0.53;0.40;;;;;;;8.31;98.08;92939.41;1805551;79;21164;-78
2021/06/14 01:41:02;;;;;;;0.50;0.50;;;;;;;8.31;98.24;92928.58;1758584;80;21088;-78
2021/06/14 01:43:32;;;;;;;0.72;0.40;;;;;;;8.33;98.04;92926.26;1780328;80;21043;-78
2021/06/14 01:46:04;;;;;;;0.75;0.53;;;;;;;8.33;97.98;92929.73;1774056;79;21054;-78
2021/06/14 01:48:31;;;;;;;1.00;0.47;;;;;;;8.33;97.87;92928.97;1797001;79;21050;-78
2021/06/14 01:50:58;;;;;;;0.60;0.50;;;;;;;8.31;97.72;92942.89;1825931;78;21217;-78
2021/06/14 01:53:25;;;;;;;1.37;0.65;;;;;;;8.33;98.00;92935.73;1829324;77;21006;-77
2021/06/14 01:55:53;;;;;;;0.90;0.60;;;;;;;8.37;97.76;92931.08;1810624;78;20945;-78
2021/06/14 01:58:20;;;;;;;0.65;0.42;;;;;;;8.37;97.65;92934.59;1785620;80;21062;-77
2021/06/14 02:01:00;;;;;;;0.68;0.40;;;;;;;8.37;97.67;92929.17;1813343;78;21033;-80
2021/06/14 02:03:35;;;;;;;1.27;0.65;;;;;;;8.37;97.58;92931.88;1784081;79;21020;-78
2021/06/14 02:06:13;;;;;;;0.88;0.85;;;;;;;8.39;97.39;92934.21;1814553;78;21018;-79
2021/06/14 02:08:40;;;;;;;0.50;0.50;;;;;;;8.35;97.17;92932.05;1824729;78;21053;-80
2021/06/14 02:11:07;;;;;;;1.55;0.70;;;;;;;8.34;97.49;92933.98;1804040;79;21029;-78
2021/06/14 02:13:34;;;;;;;1.15;0.57;;;;;;;8.30;97.48;92927.04;1818121;78;21048;-78
2021/06/14 02:16:03;;;;;;;1.62;1.10;;;;;;;8.27;97.84;92929.94;1757045;79;21235;-79
2021/06/14 02:18:29;;;;;;;1.52;0.93;;;;;;;8.23;97.69;92918.34;1796632;78;20990;-78
2021/06/14 02:20:57;;;;;;;0.82;0.60;;;;;;;8.16;97.74;92915.66;1802395;78;21010;-79
2021/06/14 02:23:24;;;;;;;4.05;2.70;;;;;;;8.14;98.09;92930.95;1805466;79;21073;-80
2021/06/14 02:25:50;;;;;;;2.77;1.70;;;;;;;8.11;98.01;92932.31;1753495;79;21027;-78
2021/06/14 02:28:16;;;;;;;2.90;1.82;;;;;;;8.06;98.24;92932.14;1801747;79;21100;-77
2021/06/14 02:30:44;;;;;;;1.30;1.10;;;;;;;8.07;98.84;92938.33;1797512;79;20999;-78
2021/06/14 02:33:12;;;;;;;1.75;0.82;;;;;;;8.11;99.11;92934.44;1791443;79;21133;-78
2021/06/14 02:35:40;;;;;;;0.82;0.80;;;;;;;8.13;99.12;92930.00;1787658;78;21000;-78
2021/06/14 02:38:07;;;;;;;0.68;0.55;;;;;;;8.17;98.97;92922.05;1766013;80;21575;-78
2021/06/14 02:40:34;;;;;;;1.27;0.53;;;;;;;8.17;98.76;92924.77;1790685;80;21741;-78
2021/06/14 02:43:07;;;;;;;3.25;1.40;;;;;;;8.21;99.14;92921.45;1764330;80;21108;-78
2021/06/14 02:45:35;;;;;;;2.25;1.47;;;;;;;8.24;98.92;92919.91;1794436;80;21092;-79
2021/06/14 02:48:05;;;;;;;0.60;0.60;;;;;;;8.28;98.93;92924.73;1789201;80;21034;-79
2021/06/14 02:50:34;;;;;;;1.67;0.57;;;;;;;8.28;98.71;92934.22;1788277;80;21073;-79
2021/06/14 02:53:04;;;;;;;2.25;1.60;;;;;;;8.22;98.30;92937.13;1778276;80;21110;-79
2021/06/14 02:55:35;;;;;;;0.50;0.45;;;;;;;8.17;98.97;92929.41;1777641;80;21031;-81
2021/06/14 02:58:03;;;;;;;0.40;0.40;;;;;;;8.17;98.68;92929.41;1777323;80;21089;-78
2021/06/14 03:00:32;;;;;;;0.60;0.40;;;;;;;8.20;98.90;92931.34;1764195;80;21512;-77
2021/06/14 03:03:03;;;;;;;0.45;0.40;;;;;;;8.22;98.82;92930.35;1776889;78;21035;-77
2021/06/14 03:05:30;;;;;;;0.70;0.45;;;;;;;8.25;99.02;92929.58;1777642;80;21164;-78
2021/06/14 03:07:59;;;;;;;0.85;0.50;;;;;;;8.30;99.00;92936.52;1778188;79;21066;-79
2021/06/14 03:10:28;;;;;;;0.50;0.50;;;;;;;8.31;99.11;92930.70;1781814;80;20912;-77
2021/06/14 03:12:57;;;;;;;0.20;0.20;;;;;;;8.33;99.10;92939.22;1780912;79;21131;-78
2021/06/14 03:15:25;;;;;;;0.30;0.30;;;;;;;8.35;98.70;92936.91;1778268;79;21106;-79
2021/06/14 03:17:53;;;;;;;0.57;0.30;;;;;;;8.37;98.77;92944.63;1778737;80;21100;-77
2021/06/14 03:20:22;;;;;;;0.47;0.40;;;;;;;8.38;99.08;92942.89;1843802;77;20994;-79
2021/06/14 03:22:49;;;;;;;0.53;0.23;;;;;;;8.39;99.04;92938.27;1806527;77;21074;-79
2021/06/14 03:25:17;;;;;;;0.88;0.68;;;;;;;8.42;99.15;92946.95;1790376;80;21000;-79
2021/06/14 03:27:44;;;;;;;0.30;0.30;;;;;;;8.42;99.12;92946.36;1790930;80;21676;-77
2021/06/14 03:30:12;;;;;;;0.10;0.10;;;;;;;8.42;97.93;92940.17;1791084;80;21090;-80
2021/06/14 03:32:43;;;;;;;8.30;2.83;;;;;;;8.42;97.61;92934.76;1790278;80;21015;-83
2021/06/14 03:35:15;;;;;;;1.85;1.30;;;;;;;8.41;97.74;92937.28;1782384;79;21509;-79
2021/06/14 03:37:42;;;;;;;0.50;0.50;;;;;;;8.39;97.85;92948.53;1776962;79;21241;-79
2021/06/14 03:40:12;;;;;;;1.80;0.90;;;;;;;8.37;98.06;92941.36;1797857;78;21078;-79
2021/06/14 03:42:38;;;;;;;0.60;0.60;;;;;;;8.36;97.88;92941.15;1776622;80;21748;-82
2021/06/14 03:45:06;;;;;;;1.67;1.15;;;;;;;8.37;97.95;92929.72;1777723;80;21587;-81
2021/06/14 03:47:33;;;;;;;3.75;0.65;;;;;;;8.37;97.70;92944.63;1776959;80;21019;-81
2021/06/14 03:49:59;;;;;;;2.12;1.27;;;;;;;8.37;97.91;92940.00;1786993;79;20988;-82
2021/06/14 03:52:25;;;;;;;2.10;1.00;;;;;;;8.39;98.29;92946.41;1790320;80;21022;-79
2021/06/14 03:54:52;;;;;;;3.10;2.30;;;;;;;8.40;98.24;92935.75;1789209;80;21070;-78
2021/06/14 03:57:18;;;;;;;3.17;1.65;;;;;;;8.43;97.85;92945.80;1790133;80;21067;-78
2021/06/14 03:59:45;;;;;;;1.30;0.70;;;;;;;8.42;97.55;92934.76;1751586;80;21027;-78
2021/06/14 04:02:12;;;;;;;1.05;0.65;;;;;;;8.44;97.99;92944.05;1781076;79;20991;-78
2021/06/14 04:07:19;;;;;;;0.78;0.50;;;;;;;8.50;98.46;92944.42;1823027;76;21324;-81
2021/06/14 04:09:45;;;;;;;0.37;0.37;;;;;;;8.48;98.35;92935.32;1789714;80;21086;-82
2021/06/14 04:12:14;;;;;;;0.90;0.50;;;;;;;8.44;98.08;92941.92;1790245;80;21006;-83
2021/06/14 04:14:42;;;;;;;1.40;1.30;;;;;;;8.40;98.64;92938.45;1789099;80;21438;-82
2021/06/14 04:17:10;;;;;;;2.55;1.22;;;;;;;8.36;98.87;92933.02;1779595;79;21113;-81
2021/06/14 04:19:36;;;;;;;1.20;1.20;;;;;;;8.34;98.48;92945.41;1775756;79;21178;-81
2021/06/14 04:22:04;;;;;;;1.20;1.10;;;;;;;8.35;98.33;92944.23;1776488;80;21061;-82
2021/06/14 04:24:31;;;;;;;2.20;1.10;;;;;;;8.34;98.29;92946.76;1779756;76;21552;-80
2021/06/14 04:26:57;;;;;;;0.85;0.85;;;;;;;8.34;98.56;92951.59;1851206;76;20966;-80
2021/06/14 04:29:23;;;;;;;1.57;0.90;;;;;;;8.35;98.39;92958.58;1802692;77;21031;-80
2021/06/14 04:31:50;;;;;;;0.88;0.88;;;;;;;8.37;98.47;92960.88;1788964;80;22285;-80
2021/06/14 04:36:42;;;;;;;1.37;0.90;;;;;;;8.37;98.50;92942.72;1857253;76;28813;-78
2021/06/14 04:39:09;;;;;;;4.37;3.30;;;;;;;8.36;98.59;92944.44;1764603;77;21007;-79
2021/06/14 04:41:36;;;;;;;2.02;1.37;;;;;;;8.39;98.46;92939.05;1797042;78;21144;-80
2021/06/14 04:44:03;;;;;;;0.93;0.50;;;;;;;8.41;98.20;92942.12;1804885;78;20978;-82
2021/06/14 04:46:32;;;;;;;1.10;1.00;;;;;;;8.41;97.89;92952.95;1794943;77;21076;-84
2021/06/14 04:48:59;;;;;;;1.30;0.70;;;;;;;8.40;97.83;92949.30;1730286;81;21054;-83
2021/06/14 04:51:26;;;;;;;0.80;0.80;;;;;;;8.39;98.08;92962.07;1770735;79;21022;-85
2021/06/14 04:53:52;;;;;;;3.08;1.40;;;;;;;8.39;98.02;92958.59;1721904;81;21502;-83
2021/06/14 04:56:21;;;;;;;2.33;1.47;;;;;;;8.35;98.22;92962.64;1736294;80;21186;-83
2021/06/14 04:58:49;;;;;;;2.65;1.60;;;;;;;8.33;98.43;92962.24;1744859;80;21118;-81
2021/06/14 05:01:19;;;;;;;7.00;2.72;;;;;;;8.30;98.65;92960.90;1763610;80;21121;-82
2021/06/14 05:03:49;;;;;;;2.95;2.17;;;;;;;8.25;98.95;92965.55;1783318;80;21014;-81
2021/06/14 05:06:16;;;;;;;5.03;1.98;;;;;;;8.27;99.53;92957.03;1691090;81;21092;-82
2021/06/14 05:08:47;;;;;;;5.10;2.92;;;;;;;8.26;99.57;92981.98;1753177;81;21047;-84
2021/06/14 05:11:16;;;;;;;4.80;2.95;;;;;;;8.27;99.72;92971.37;1793529;77;21579;-80
2021/06/14 05:13:46;;;;;;;3.52;2.85;;;;;;;8.26;99.94;92976.57;1816212;77;21195;-84
2021/06/14 05:16:13;;;;;;;4.58;3.70;;;;;;;8.25;99.89;92974.27;1804353;77;20962;-80
2021/06/14 05:18:40;;;;;;;3.85;3.17;;;;;;;8.25;99.71;92980.45;1745688;79;21292;-82
2021/06/14 05:21:07;;;;;;;15.83;5.87;;;;;;;8.26;99.61;92979.28;1754065;79;21086;-81
2021/06/14 05:23:35;;;;;;;10.65;4.80;;;;;;;8.27;99.66;92982.20;1770041;79;21087;-83
2021/06/14 05:26:10;;;;;;;6.87;3.10;;;;;;;8.29;99.97;92991.28;1762781;79;21031;-82
2021/06/14 05:28:39;;;;;;;2.95;2.62;;;;;;;8.32;99.99;92995.16;1760238;79;21071;-81
2021/06/14 05:31:13;;;;;;;1.22;1.17;;;;;;;8.33;99.65;92987.98;1772914;79;21125;-84
2021/06/14 05:33:42;;;;;;;1.10;1.00;;;;;;;8.34;99.34;92989.52;1772942;78;21114;-83
2021/06/14 05:36:16;;;;;;;8.65;4.15;;;;;;;8.37;99.26;92986.06;1798728;77;21582;-83
2021/06/14 05:38:44;;;;;;;5.15;2.52;;;;;;;8.37;99.09;92994.19;1747664;78;20970;-82
2021/06/14 05:41:13;;;;;;;2.27;2.08;;;;;;;8.37;99.25;93002.31;1803345;78;20978;-83
2021/06/14 05:43:44;;;;;;;25.25;10.60;;;;;;;8.39;99.79;93006.00;1806917;77;22331;-82
2021/06/14 05:46:14;;;;;;;0.72;0.72;;;;;;;8.38;100.00;93007.91;1788442;78;21084;-81
2021/06/14 05:48:43;;;;;;;6.90;3.70;;;;;;;8.40;100.00;93005.61;1779012;79;21087;-80
2021/06/14 05:51:09;;;;;;;1.57;1.25;;;;;;;8.39;99.35;93016.26;1780709;79;21012;-79
2021/06/14 05:53:37;;;;;;;2.67;1.92;;;;;;;8.39;99.10;93012.78;1771376;78;21677;-80
2021/06/14 05:56:04;;;;;;;2.40;1.20;;;;;;;8.37;98.72;93018.57;1771613;78;21089;-80
2021/06/14 05:58:30;;;;;;;0.93;0.90;;;;;;;8.37;98.92;93010.44;1777452;80;21499;-82
2021/06/14 06:00:59;;;;;;;1.32;1.22;;;;;;;8.36;98.80;93015.65;1721448;81;21132;-83
2021/06/14 06:03:32;;;;;;;3.50;1.98;;;;;;;8.31;98.94;93024.16;1745665;79;21590;-85
2021/06/14 06:05:59;;;;;;;1.00;1.00;;;;;;;8.27;99.06;93024.19;1805038;78;21076;-81
2021/06/14 06:08:26;;;;;;;3.40;2.17;;;;;;;8.28;99.00;93023.60;1795570;77;21638;-82
2021/06/14 06:10:52;;;;;;;1.37;1.27;;;;;;;8.28;98.81;93030.38;1801062;77;21097;-82
2021/06/14 06:13:19;;;;;;;1.22;1.12;;;;;;;8.28;99.05;93027.08;1803103;77;21570;-81
2021/06/14 06:15:47;;;;;;;1.22;1.10;;;;;;;8.27;99.20;93032.31;1796270;77;21254;-80
2021/06/14 06:18:16;;;;;;;0.60;0.60;;;;;;;8.27;98.89;93035.02;1727614;79;21208;-84
2021/06/14 06:20:44;;;;;;;0.78;0.78;;;;;;;8.28;98.88;93034.44;1734914;80;22204;-83
2021/06/14 06:23:12;;;;;;;1.85;0.80;;;;;;;8.30;98.50;93038.87;1755658;79;21100;-82
2021/06/14 06:25:38;;;;;;;0.95;0.50;;;;;;;8.30;98.05;93044.28;1793131;78;21070;-88
2021/06/14 06:28:05;;;;;;;2.70;1.65;;;;;;;8.27;97.49;93041.00;1808255;79;21082;-84
2021/06/14 06:30:36;;;;;;;2.50;2.20;;;;;;;8.25;97.92;93041.39;1812888;77;21045;-83
2021/06/14 06:33:04;;;;;;;1.37;1.27;;;;;;;8.23;98.04;93042.35;1801006;77;21137;-83
2021/06/14 06:35:31;;;;;;;3.60;2.08;;;;;;;8.22;98.40;93050.30;1757476;79;20996;-82
2021/06/14 06:37:58;;;;;;;2.65;1.10;;;;;;;8.22;98.74;93044.88;1723254;80;22121;-82
2021/06/14 06:40:27;;;;;;;1.70;1.40;;;;;;;8.21;98.70;93050.70;1754229;80;21294;-83
2021/06/14 06:42:56;;;;;;;1.50;1.37;;;;;;;8.21;98.73;93045.28;1745264;80;21025;-82
2021/06/14 06:45:23;;;;;;;2.87;2.25;;;;;;;8.21;98.80;93046.05;1761538;79;21097;-82
2021/06/14 06:47:49;;;;;;;2.20;2.00;;;;;;;8.21;98.38;93060.17;1756810;80;21443;-83
2021/06/14 06:50:16;;;;;;;1.70;1.60;;;;;;;8.21;98.77;93050.11;1758712;80;21057;-84
2021/06/14 06:55:18;;;;;;;1.75;1.30;;;;;;;8.28;98.79;93054.75;1781841;79;21037;-80
2021/06/14 06:57:49;;;;;;;6.03;3.22;;;;;;;8.31;98.58;93064.79;1768878;78;21439;-82
2021/06/14 07:00:18;;;;;;;3.42;2.52;;;;;;;8.35;98.33;93059.36;1782270;78;21065;-81
2021/06/14 07:02:45;;;;;;;2.80;1.95;;;;;;;8.39;98.66;93064.25;1808882;78;21580;-79
2021/06/14 07:05:14;;;;;;;5.45;3.52;;;;;;;8.39;98.97;93066.38;1803825;77;21721;-82
2021/06/14 07:07:54;;;;;;;2.22;0.53;;;;;;;8.42;99.16;93070.23;1813495;77;22006;-80
2021/06/14 07:10:20;;;;;;;2.37;1.55;;;;;;;8.44;98.80;93068.69;1796684;77;21129;-83
2021/06/14 07:12:50;;;;;;;1.17;1.07;;;;;;;8.48;98.75;93076.22;1807926;77;21042;-80
2021/06/14 07:15:17;;;;;;;4.25;2.27;;;;;;;8.50;98.47;93077.20;1806255;77;21917;-82
2021/06/14 07:17:45;;;;;;;2.58;1.82;;;;;;;8.49;98.36;93068.86;1812717;77;20998;-79
2021/06/14 07:20:20;;;;;;;2.00;1.60;;;;;;;8.54;98.59;93078.53;1809820;77;21038;-80
2021/06/14 07:22:49;;;;;;;2.58;1.02;;;;;;;8.55;98.63;93080.09;1681387;82;22479;-83
2021/06/14 07:25:16;;;;;;;1.80;1.30;;;;;;;8.53;97.98;93083.17;1800724;77;21140;-83
2021/06/14 07:27:43;;;;;;;1.57;1.02;;;;;;;8.49;98.07;93077.77;1795815;77;21105;-83
2021/06/14 07:30:14;;;;;;;0.53;0.53;;;;;;;8.53;98.32;93089.19;1755892;80;21042;-83
2021/06/14 07:32:43;;;;;;;1.67;1.37;;;;;;;8.55;97.70;93090.94;1800004;77;21089;-82
2021/06/14 07:35:11;;;;;;;1.45;1.30;;;;;;;8.60;97.54;93091.89;1764624;80;21591;-82
2021/06/14 07:37:38;;;;;;;2.22;1.40;;;;;;;8.62;97.81;93093.05;1715661;82;21547;-81
2021/06/14 07:40:07;;;;;;;0.53;0.53;;;;;;;8.63;98.07;93088.40;1781215;79;21714;-81
2021/06/14 07:42:33;;;;;;;0.50;0.40;;;;;;;8.64;97.72;93079.09;1756441;80;21003;-81
2021/06/14 07:45:00;;;;;;;2.70;1.95;;;;;;;8.62;97.42;93098.47;1774417;80;20950;-81
2021/06/14 07:47:28;;;;;;;1.10;0.75;;;;;;;8.60;97.45;93098.08;1767998;80;21617;-81
2021/06/14 07:49:54;;;;;;;1.05;0.60;;;;;;;8.61;97.45;93098.84;1760675;80;21084;-81
2021/06/14 07:52:21;;;;;;;1.07;0.98;;;;;;;8.62;97.58;93105.83;1798689;77;20940;-82
2021/06/14 07:54:47;;;;;;;0.62;0.60;;;;;;;8.61;97.01;93102.91;1808609;78;20959;-81
2021/06/14 07:57:15;;;;;;;3.08;2.12;;;;;;;8.61;97.08;93111.04;1764025;80;21092;-81
2021/06/14 07:59:41;;;;;;;1.32;1.22;;;;;;;8.61;97.16;93117.81;1808004;77;21108;-81
2021/06/14 08:02:12;;;;;;;2.10;1.90;;;;;;;8.61;97.26;93107.74;1813979;78;21676;-83
2021/06/14 08:04:40;;;;;;;1.52;1.42;;;;;;;8.60;97.09;93110.27;1813206;77;21050;-85
2021/06/14 08:07:07;;;;;;;1.50;1.40;;;;;;;8.58;97.32;93113.97;1813219;78;21063;-84
2021/06/14 08:09:34;;;;;;;1.90;1.60;;;;;;;8.61;97.88;93111.81;1807514;78;20999;-86
2021/06/14 08:12:02;;;;;;;1.87;1.40;;;;;;;8.61;97.68;93110.45;1784319;78;21110;-83
2021/06/14 08:14:29;;;;;;;2.08;1.40;;;;;;;8.59;97.51;93115.51;1803761;79;21384;-83
2021/06/14 08:16:55;;;;;;;3.77;1.90;;;;;;;8.58;97.46;93113.20;1791713;78;21041;-84
2021/06/14 08:19:33;;;;;;;3.42;2.15;;;;;;;8.56;97.35;93124.41;1788314;78;21599;-81
2021/06/14 08:27:12;;;;;;;3.27;1.80;;;;;;;8.39;98.30;93126.57;1807533;77;21096;-85
2021/06/14 08:29:41;;;;;;;2.42;2.22;;;;;;;8.36;98.45;93147.05;1804773;78;21097;-84
2021/06/14 08:32:08;;;;;;;3.47;3.10;;;;;;;8.34;98.91;93152.64;1779076;79;21077;-89
2021/06/14 08:34:35;;;;;;;2.50;2.30;;;;;;;8.33;99.23;93150.52;1800720;78;22032;-85
2021/06/14 08:37:08;;;;;;;3.95;3.55;;;;;;;8.34;99.46;93156.70;1772261;78;21508;-88
2021/06/14 08:39:35;;;;;;;3.40;3.10;;;;;;;8.36;99.70;93169.30;1788491;78;21034;-83
2021/06/14 08:42:04;;;;;;;5.65;3.85;;;;;;;8.36;99.59;93172.02;1750661;80;21093;-86
2021/06/14 08:44:31;;;;;;;3.42;3.12;;;;;;;8.34;99.28;93156.70;1757790;80;21780;-85
2021/06/14 08:47:05;;;;;;;3.70;3.30;;;;;;;8.35;99.67;93154.19;1799656;77;21049;-82
2021/06/14 08:49:29;;;;;;;3.15;2.37;;;;;;;8.36;99.64;93160.59;1792124;77;21093;-81
2021/06/14 08:51:58;;;;;;;4.53;2.70;;;;;;;8.36;99.60;93158.47;1803954;77;21054;-83
2021/06/14 08:54:31;;;;;;;3.42;3.12;;;;;;;8.36;99.44;93158.47;1800795;77;20983;-83
2021/06/14 08:56:59;;;;;;;3.77;3.42;;;;;;;8.38;99.77;93165.64;1731002;80;21162;-84
2021/06/14 08:59:27;;;;;;;3.95;3.25;;;;;;;8.38;99.80;93166.41;1759010;79;21036;-84
2021/06/14 09:01:54;;;;;;;3.50;3.20;;;;;;;8.40;100.00;93166.81;1801070;77;21113;-82
2021/06/14 09:04:21;;;;;;;3.20;2.90;;;;;;;8.42;99.91;93174.54;1801339;77;21034;-82
2021/06/14 09:06:48;;;;;;;3.35;3.02;;;;;;;8.43;99.81;93180.95;1731196;81;21469;-83
2021/06/14 09:09:14;;;;;;;3.37;3.08;;;;;;;8.44;99.71;93181.72;1762319;78;21119;-84
2021/06/14 09:11:52;;;;;;;3.67;3.33;;;;;;;8.43;99.43;93179.59;1772084;78;21123;-81
2021/06/14 09:14:22;;;;;;;4.05;3.65;;;;;;;8.43;99.49;93180.95;1795952;78;21076;-82
2021/06/14 09:16:51;;;;;;;3.85;3.55;;;;;;;8.44;99.61;93187.91;1796552;77;21093;-83
2021/06/14 09:19:31;;;;;;;4.20;3.80;;;;;;;8.43;99.52;93186.37;1789622;78;21632;-83
2021/06/14 09:22:21;;;;;;;4.87;3.98;;;;;;;8.40;99.70;93193.91;1769596;78;21124;-80
2021/06/14 09:24:58;;;;;;;3.77;3.10;;;;;;;8.40;99.97;93192.55;1799389;77;21473;-81
2021/06/14 09:27:42;;;;;;;3.70;3.40;;;;;;;8.40;99.62;93187.72;1780165;79;21087;-83
2021/06/14 09:30:32;;;;;;;5.37;3.58;;;;;;;8.41;99.65;93184.61;1758189;77;21032;-81
2021/06/14 09:33:06;;;;;;;3.12;2.92;;;;;;;8.44;99.78;93178.42;1832508;76;21097;-84
2021/06/14 09:35:41;;;;;;;2.95;2.58;;;;;;;8.49;99.64;93183.44;1793148;78;21009;-86
2021/06/14 09:38:14;;;;;;;3.85;2.62;;;;;;;8.54;99.54;93189.64;1765837;79;21536;-83
2021/06/14 09:40:52;;;;;;;2.72;2.52;;;;;;;8.56;99.09;93196.23;1783003;78;21054;-83
2021/06/14 09:43:37;;;;;;;4.03;2.77;;;;;;;8.57;98.81;93204.55;1790535;77;20996;-83
2021/06/14 09:46:28;;;;;;;3.10;2.90;;;;;;;8.56;98.90;93203.59;1794740;78;21536;-83
2021/06/14 09:49:05;;;;;;;3.83;2.75;;;;;;;8.57;98.75;93211.31;1796180;77;21049;-83
2021/06/14 09:51:41;;;;;;;3.65;3.35;;;;;;;8.60;98.88;93206.48;1830963;75;21023;-82
2021/06/14 09:54:08;;;;;;;5.92;4.83;;;;;;;8.61;98.74;93201.84;1778051;77;21098;-83
2021/06/14 09:56:36;;;;;;;4.83;4.10;;;;;;;8.61;98.80;93200.48;1794574;78;21057;-84
2021/06/14 09:59:04;;;;;;;3.90;3.60;;;;;;;8.61;98.92;93197.77;1776012;78;21598;-87
2021/06/14 10:01:40;;;;;;;3.90;3.50;;;;;;;8.62;98.55;93205.53;1793491;76;21626;-82
2021/06/14 10:04:11;;;;;;;4.10;3.70;;;;;;;8.62;98.16;93208.83;1806061;75;20931;-82
2021/06/14 10:06:43;;;;;;;4.45;4.00;;;;;;;8.62;98.16;93210.18;1753643;78;21102;-83
2021/06/14 10:09:17;;;;;;;3.95;3.62;;;;;;;8.64;98.42;93211.32;1788547;78;21045;-83
2021/06/14 10:14:26;;;;;;;4.15;3.75;;;;;;;8.69;98.30;93209.59;1797973;77;21002;-81
2021/06/14 10:17:02;;;;;;;3.50;3.20;;;;;;;8.75;98.66;93207.26;1804393;77;21052;-82
2021/06/14 10:19:44;;;;;;;3.42;3.12;;;;;;;8.81;98.55;93204.36;1780338;78;20966;-84
2021/06/14 10:22:11;;;;;;;3.50;2.65;;;;;;;8.84;98.29;93204.14;1779271;78;20983;-84
2021/06/14 10:24:43;;;;;;;3.02;2.80;;;;;;;8.87;98.17;93200.66;1777251;77;21097;-82
2021/06/14 10:27:11;;;;;;;3.85;3.05;;;;;;;8.89;97.27;93199.12;1818236;77;21120;-81
2021/06/14 10:29:41;;;;;;;3.30;3.00;;;;;;;8.93;97.34;93199.11;1803026;78;21050;-81
2021/06/14 10:32:09;;;;;;;3.10;2.80;;;;;;;8.97;97.10;93199.30;1805487;77;21454;-81
2021/06/14 10:34:38;;;;;;;3.12;2.83;;;;;;;8.97;96.85;93195.23;1810107;77;21092;-81
2021/06/14 10:37:05;;;;;;;3.55;3.22;;;;;;;9.02;97.22;93202.77;1812252;77;21069;-82
2021/06/14 10:39:32;;;;;;;3.22;2.92;;;;;;;9.06;97.47;93199.47;1797489;78;20979;-82
2021/06/14 10:41:59;;;;;;;4.75;3.00;;;;;;;9.09;97.47;93199.47;1781751;78;21059;-83
2021/06/14 10:44:27;;;;;;;3.25;2.95;;;;;;;9.12;97.26;93205.47;1832870;75;21189;-84
2021/06/14 10:46:54;;;;;;;4.15;3.37;;;;;;;9.15;96.07;93207.41;1811141;76;21106;-83
2021/06/14 10:49:21;;;;;;;3.95;3.10;;;;;;;9.16;95.96;93206.23;1814901;76;21081;-83
2021/06/14 10:51:59;;;;;;;3.60;3.30;;;;;;;9.17;96.35;93202.94;1843279;76;21136;-84
2021/06/14 10:54:59;;;;;;;7.05;4.20;;;;;;;9.21;96.16;93205.06;1803986;77;21071;-83
2021/06/14 10:57:33;;;;;;;4.28;3.42;;;;;;;9.20;96.14;93207.00;1749599;79;21131;-85
2021/06/14 10:59:59;;;;;;;8.15;6.37;;;;;;;9.26;96.52;93204.68;1758891;79;21226;-82
2021/06/14 11:02:30;;;;;;;3.02;2.83;;;;;;;9.27;96.29;93195.36;1813387;77;21313;-83
2021/06/14 11:05:07;;;;;;;3.37;3.08;;;;;;;9.29;96.09;93195.76;1790575;77;21011;-82
2021/06/14 11:07:34;;;;;;;9.28;6.10;;;;;;;9.35;96.47;93195.53;1752581;78;21058;-83
2021/06/14 11:10:11;;;;;;;2.95;2.67;;;;;;;9.45;97.02;93187.95;1708264;81;21186;-82
2021/06/14 11:12:44;;;;;;;4.35;2.67;;;;;;;9.56;97.48;93184.43;1687867;79;21140;-83
2021/06/14 11:15:11;;;;;;;4.87;2.42;;;;;;;9.66;97.31;93185.72;1768414;79;21034;-83
2021/06/14 11:17:45;;;;;;;5.05;3.55;;;;;;;9.75;97.14;93182.59;1782580;78;21135;-81
2021/06/14 11:20:10;;;;;;;2.55;2.35;;;;;;;9.85;96.51;93183.70;1813370;77;21801;-84
2021/06/14 11:22:46;;;;;;;3.58;2.42;;;;;;;9.88;96.64;93182.32;1774700;78;22245;-84
2021/06/14 11:25:27;;;;;;;5.65;3.98;;;;;;;9.88;96.40;93182.91;1781145;78;21056;-85
2021/06/14 11:27:49;;;;;;;4.12;3.35;;;;;;;9.87;95.85;93193.00;1815865;77;20998;-81
2021/06/14 11:30:24;;;;;;;7.55;5.03;;;;;;;9.88;95.85;93187.75;1820001;78;20970;-82
2021/06/14 11:32:50;;;;;;;2.40;2.20;;;;;;;9.89;95.87;93192.04;1760978;79;21032;-81
2021/06/14 11:35:20;;;;;;;7.17;4.90;;;;;;;9.89;95.08;93189.88;1798515;76;21197;-82
2021/06/14 11:37:48;;;;;;;11.75;7.00;;;;;;;9.88;94.90;93190.47;1814148;77;21129;-83
2021/06/14 11:40:18;;;;;;;4.65;3.25;;;;;;;9.93;95.09;93194.73;1814225;77;21009;-81
2021/06/14 11:42:49;;;;;;;4.28;3.87;;;;;;;9.95;94.96;93193.16;1807854;77;20971;-81
2021/06/14 11:45:29;;;;;;;3.42;3.12;;;;;;;9.97;94.23;93190.83;1812617;77;20967;-81
2021/06/14 11:47:58;;;;;;;4.03;2.72;;;;;;;10.02;94.16;93184.20;1765126;79;21118;-83
2021/06/14 11:50:30;;;;;;;3.42;2.20;;;;;;;10.03;94.95;93192.53;1819676;77;20940;-83
2021/06/14 11:53:06;;;;;;;3.98;2.42;;;;;;;10.00;94.24;93197.98;1800871;77;21069;-80
2021/06/14 11:55:38;;;;;;;1.67;1.57;;;;;;;9.97;93.44;93186.75;1754846;79;20947;-80
2021/06/14 11:58:20;;;;;;;1.92;1.82;;;;;;;10.01;93.93;93194.11;1737953;79;21085;-83
2021/06/14 12:00:51;;;;;;;2.00;1.80;;;;;;;10.03;94.21;93196.60;1835886;76;21731;-82
2021/06/14 12:03:29;;;;;;;4.42;3.98;;;;;;;10.05;93.57;93192.16;1774438;78;21480;-82
2021/06/14 12:12:18;;;;;;;;;;;;;;;10.00;93.23;93184.40;1750513;80;21655;-85
2021/06/14 12:15:10;;;;;;;2.90;1.92;;;;;;;10.01;93.09;93190.05;1726229;81;21867;-85
2021/06/14 12:17:54;;;;;;;2.20;2.00;;;;;;;9.98;93.19;93188.30;1759225;78;21525;-83